Sawyer, Michigan
Current Conditions -  °F | °C
As of 12:35 AM on Tuesday 27 Jan 2015 (Local Time) from KMGC Reporting Station
Light Snow Light Snow  
Wind Chill: 23°   Ceiling: 2100
Heat Index: 23°   Visibility: 10mi
Dew Point: 14°   Wind: 3mph
Humidity: 68%   Direction: 110°ESE
Pressure: 29.94"   Gusts: NA
Location:  41.89°N, 86.59°W
Report Text: KMGC 270535Z AUTO 11003KT 10SM -SN OVC021 M05/M10 A2994 RMK AO2
Loading
Personal Weather Stations






























Interactive Weather Map New forecast layout! Learn more

10-Day Weather Forecast

Advertisements
Track Severe Weather on mobile